Hammersmith, United Kingdom
Current Conditions -  °F | °C
As of 3:50 PM on Thursday 27 Nov 2014 (Local Time) from EGWU Reporting Station
Broken Clouds Broken Clouds  
Wind Chill: 50°   Ceiling: 2000
Heat Index: 50°   Visibility: 6mi
Dew Point: 46°   Wind: 3mph
Humidity: 87%   Direction: 10°N
Pressure: 29.59"   Gusts: NA
Location:  51.49°N, 0.23°W
Report Text: EGWU 271550Z 01003KT 9999 BKN020 10/08 Q1002 WHT TEMPO FEW020 BKN045 BLU
Loading
Personal Weather Stations






























Interactive Weather Map New forecast layout! Learn more

10-Day Weather Forecast

Advertisements
Track Severe Weather on mobile